Portada
METAR-TAF:

METAR-TAF

Aeroports :

Oskemen, Kazakhstan

latitud: 50-02-10N, longitud: 082-29-39E, altitud: 286 m

Observació

L'informe es va fer fa 21 minuts, a les 10:30 UTC
Vent calma
Temperatura -15°C
Humitat 85%
Pressió 1024 hPa
Visibilitat: 2100 m
boirina

METAR: UASK 111030Z 00000MPS 2100 BR NSC M15/M17 Q1024 R30/810155 NOSIG RMK QFE743/0990

Hora: 16:51 (10:51 UTC)

Pronòstic

L'informe es va fer fa 2 hores i 45 minuts, a les 08:06 UTC
Pronòstic vàlid del 11 a les 09 UTC al 11 a les 18 UTC
Vent 2 kt amb direcció variable
Visibilitat: 2500 m
Escasses núvols a una alçada de 400 ft
boirina
Temporalment
l' 11 a les 11 UTC al 11 a les 15 UTC
Visibilitat: 0200 m
Cel ennuvolat a una alçada de 200 ft
boira gebradora
Temporalment
l' 11 a les 15 UTC al 11 a les 18 UTC
Visibilitat: 0200 m
a una alçada de 200 ft
boira gebradora

TAF: UASK 110806Z 1109/1118 VRB01MPS 2500 BR FEW004 TEMPO 1111/1115 0200 FZFG BKN002 TEMPO 1115/1118 0200 FZFG VV002

Observacions i pronòstics meteorològics de més de 4000 aeroports (METAR i TAF).

Les estacions disponibles són els punts grocs i vermells al mapa.

Posi el ratolí al punt desitjat per veure el nom de l'estació.

Feu clic per veure les observacions i els pronòstics meteorològics.

Per canviar el mapa: feu clic els botons verds amb una creu de color negre per apropar; al botó verd amb un guió per allunyar la imatge; o en les fletxes verdes per a mapes adjacents.


METAR-TAF: